Time;durP1;ratioP1;P1;durP2;ratioP2;P2;SDS_P1;SDS_P2;PMS_P1;PMS_P2;Temp;Humidity;BMP_temperature;BMP_pressure;BME280_temperature;BME280_humidity;BME280_pressure;Samples;Min_cycle;Max_cycle;Signal;HPM_P1;HPM_P2
2024/04/11 03:30:14;;;;;;;3.05;1.30;;;16.60;99.90;;;;;;6420048;21;20017;31
2024/04/11 03:32:39;;;;;;;3.35;1.65;;;16.60;99.90;;;;;;5263701;27;20017;-80
2024/04/11 03:35:08;;;;;;;3.03;1.20;;;16.60;99.90;;;;;;5251020;27;20359;-80
2024/04/11 03:37:33;;;;;;;2.53;1.42;;;16.60;99.90;;;;;;5272468;27;20006;-80
2024/04/11 03:39:59;;;;;;;3.47;1.50;;;16.60;99.90;;;;;;5272156;27;20347;-80
2024/04/11 03:42:25;;;;;;;2.72;1.58;;;16.60;99.90;;;;;;5242360;27;20025;-79
2024/04/11 03:44:51;;;;;;;2.25;1.35;;;16.60;99.90;;;;;;5226782;27;20206;-79
2024/04/11 03:47:21;;;;;;;2.95;1.50;;;16.60;99.90;;;;;;5227659;27;20012;-79
2024/04/11 03:49:46;;;;;;;3.00;1.40;;;16.50;99.90;;;;;;5229754;27;20459;-79
2024/04/11 03:52:14;;;;;;;3.55;1.52;;;16.60;99.90;;;;;;5242030;27;20022;-79
2024/04/11 03:54:40;;;;;;;3.35;1.33;;;16.60;99.90;;;;;;5241810;27;20030;-79
2024/04/11 03:57:07;;;;;;;4.35;1.88;;;16.60;99.90;;;;;;5235759;27;20019;-79
2024/04/11 03:59:32;;;;;;;2.08;1.20;;;16.60;99.90;;;;;;5242148;27;20026;-79
2024/04/11 04:01:58;;;;;;;3.22;1.48;;;16.50;99.90;;;;;;5238090;27;20003;-80
2024/04/11 04:04:23;;;;;;;2.28;1.13;;;16.60;99.90;;;;;;5243438;27;20007;-80
2024/04/11 04:06:49;;;;;;;3.22;1.38;;;16.50;99.90;;;;;;5233751;27;20018;-79
2024/04/11 04:09:15;;;;;;;3.22;1.50;;;16.60;99.90;;;;;;5232680;27;20606;-79
2024/04/11 04:11:41;;;;;;;3.30;1.42;;;16.60;99.90;;;;;;5231185;27;20059;-80
2024/04/11 04:14:12;;;;;;;2.67;1.45;;;16.50;99.90;;;;;;5241278;27;20011;-79
2024/04/11 04:16:46;;;;;;;3.67;1.48;;;16.50;99.90;;;;;;5231810;27;20015;-80
2024/04/11 04:19:12;;;;;;;3.65;1.55;;;16.50;99.90;;;;;;5230352;27;20416;-79
2024/04/11 04:21:39;;;;;;;2.85;1.52;;;16.60;99.90;;;;;;5228205;27;20022;-80
2024/04/11 04:24:05;;;;;;;3.63;1.40;;;16.50;99.90;;;;;;5234279;27;20494;-79
2024/04/11 04:26:31;;;;;;;2.25;1.23;;;16.50;99.90;;;;;;5233506;27;20010;-79
2024/04/11 04:28:57;;;;;;;3.97;1.40;;;16.50;99.90;;;;;;5229849;27;20413;-79
2024/04/11 04:31:33;;;;;;;2.72;1.30;;;16.50;99.90;;;;;;5232801;27;20025;-78
2024/04/11 04:34:01;;;;;;;10.65;2.10;;;16.50;99.90;;;;;;5232603;27;20014;-81
2024/04/11 04:36:43;;;;;;;8.45;2.58;;;16.30;99.90;;;;;;5233449;27;20023;-82
2024/04/11 04:39:13;;;;;;;14.45;2.60;;;16.00;99.90;;;;;;5228149;27;20011;-82
2024/04/11 04:41:39;;;;;;;6.85;2.40;;;15.90;99.90;;;;;;5226130;27;20475;-82
2024/04/11 04:44:05;;;;;;;6.03;2.38;;;16.00;99.90;;;;;;5230764;27;20007;-82
2024/04/11 04:46:32;;;;;;;7.13;2.60;;;15.90;99.90;;;;;;5233638;27;20019;-82
2024/04/11 04:49:09;;;;;;;6.13;2.38;;;16.00;99.90;;;;;;5233329;27;20011;-82
2024/04/11 04:51:36;;;;;;;6.40;2.85;;;16.00;99.90;;;;;;5238395;27;20121;-82
2024/04/11 04:54:02;;;;;;;7.47;2.45;;;16.00;99.90;;;;;;5230436;27;20255;-82
2024/04/11 04:56:29;;;;;;;9.23;2.70;;;16.10;99.90;;;;;;5233668;27;20002;-82
2024/04/11 04:58:56;;;;;;;6.47;2.45;;;16.10;99.90;;;;;;5229164;27;20015;-82
2024/04/11 05:01:23;;;;;;;5.72;2.30;;;16.10;99.90;;;;;;5237949;27;20487;-82
2024/04/11 05:03:50;;;;;;;4.95;2.20;;;16.10;99.90;;;;;;5233843;27;20026;-82
2024/04/11 05:06:16;;;;;;;7.88;2.47;;;16.20;99.90;;;;;;5234222;27;20464;-82
2024/04/11 05:08:53;;;;;;;8.15;2.55;;;16.20;99.90;;;;;;5232952;27;20085;-82
2024/04/11 05:11:21;;;;;;;5.50;2.40;;;16.20;99.90;;;;;;5233044;27;20051;-82
2024/04/11 05:13:49;;;;;;;5.25;2.55;;;16.20;99.90;;;;;;5231914;27;20014;-82
2024/04/11 05:16:19;;;;;;;7.13;2.55;;;16.20;99.90;;;;;;5237053;27;20011;-82
2024/04/11 05:18:46;;;;;;;9.27;2.75;;;16.20;99.90;;;;;;5228420;27;20010;-82
2024/04/11 05:21:16;;;;;;;5.10;2.25;;;16.20;99.90;;;;;;5235492;27;20010;-82
2024/04/11 05:23:42;;;;;;;4.75;2.30;;;16.30;99.90;;;;;;5231819;27;20010;-82
2024/04/11 05:26:32;;;;;;;9.45;2.55;;;16.30;99.90;;;;;;5228498;27;20022;-82
2024/04/11 05:28:57;;;;;;;6.83;2.73;;;16.30;99.90;;;;;;5236262;27;20018;-82
2024/04/11 05:31:26;;;;;;;6.72;2.10;;;16.30;99.90;;;;;;5231573;27;20590;-82
2024/04/11 05:33:53;;;;;;;7.43;2.50;;;16.30;99.90;;;;;;5227788;27;20003;-82
2024/04/11 05:36:24;;;;;;;3.58;1.90;;;16.30;99.90;;;;;;5231711;27;20018;-81
2024/04/11 05:38:51;;;;;;;7.95;2.38;;;16.30;99.90;;;;;;5263818;27;20003;-82
2024/04/11 05:41:17;;;;;;;7.35;2.45;;;16.30;99.90;;;;;;5233980;27;20030;-82
2024/04/11 05:43:43;;;;;;;7.65;2.35;;;16.30;99.90;;;;;;5237224;27;20002;-81
2024/04/11 05:46:17;;;;;;;4.85;2.22;;;16.30;99.90;;;;;;5227019;27;20014;-82
2024/04/11 05:48:43;;;;;;;4.55;2.20;;;16.30;99.90;;;;;;5229563;27;20010;-82
2024/04/11 05:51:10;;;;;;;6.25;2.22;;;16.30;99.90;;;;;;5226103;27;20027;-82
2024/04/11 05:53:36;;;;;;;9.05;2.60;;;16.30;99.90;;;;;;5234326;27;20007;-82
2024/04/11 05:56:07;;;;;;;10.15;2.42;;;16.30;99.90;;;;;;5235815;27;20450;-82
2024/04/11 05:58:33;;;;;;;6.45;1.90;;;16.20;99.90;;;;;;5237214;27;20026;-82
2024/04/11 06:01:01;;;;;;;5.25;2.03;;;16.20;99.90;;;;;;5265089;27;20104;-82
2024/04/11 06:03:29;;;;;;;4.65;1.90;;;16.30;99.90;;;;;;5234920;27;20017;-82
2024/04/11 06:05:56;;;;;;;8.50;2.17;;;16.20;99.90;;;;;;5265646;27;20008;-81
2024/04/11 06:08:25;;;;;;;5.45;1.95;;;16.30;99.90;;;;;;5230681;27;20034;-82
2024/04/11 06:10:51;;;;;;;4.35;2.15;;;16.20;99.90;;;;;;5235549;27;20021;-81
2024/04/11 06:13:18;;;;;;;9.15;2.30;;;16.30;99.90;;;;;;5231999;27;20019;-82
2024/04/11 06:15:47;;;;;;;7.72;2.25;;;16.30;99.90;;;;;;5267169;27;20027;-81
2024/04/11 06:18:14;;;;;;;4.97;2.03;;;16.30;99.90;;;;;;5235667;27;20011;-81
2024/04/11 06:20:41;;;;;;;4.55;2.00;;;16.30;99.90;;;;;;5229753;27;20402;-82
2024/04/11 06:23:09;;;;;;;9.23;2.20;;;16.30;99.90;;;;;;5239122;27;20384;-81
2024/04/11 06:25:39;;;;;;;5.45;2.10;;;16.30;99.90;;;;;;5240121;27;20063;-80
2024/04/11 06:28:05;;;;;;;3.42;2.03;;;16.30;99.90;;;;;;5234928;27;21215;-80
2024/04/11 06:30:36;;;;;;;5.78;1.80;;;16.30;99.90;;;;;;5270281;27;20010;-81
2024/04/11 06:33:02;;;;;;;5.13;2.10;;;16.30;99.90;;;;;;5242815;27;20026;-81
2024/04/11 06:35:29;;;;;;;4.63;1.73;;;16.30;99.90;;;;;;5234048;27;20090;-80
2024/04/11 06:37:54;;;;;;;8.40;2.15;;;16.30;99.90;;;;;;5228739;27;20026;-80
2024/04/11 06:40:21;;;;;;;4.07;1.90;;;16.30;99.90;;;;;;5241068;27;20015;-80
2024/04/11 06:42:47;;;;;;;5.30;1.88;;;16.30;99.90;;;;;;5240789;27;20018;-79
2024/04/11 06:45:19;;;;;;;8.20;1.85;;;16.30;99.90;;;;;;5239388;27;20343;-81
2024/04/11 06:47:45;;;;;;;6.30;1.95;;;16.20;99.90;;;;;;5240714;27;20018;-81
2024/04/11 06:50:10;;;;;;;4.28;2.10;;;16.20;99.90;;;;;;5238635;27;20062;-81
2024/04/11 06:52:37;;;;;;;3.75;1.80;;;16.20;99.90;;;;;;5228843;27;20386;-79
2024/04/11 06:55:14;;;;;;;4.15;1.77;;;16.20;99.90;;;;;;5232726;27;20011;-80
2024/04/11 06:57:46;;;;;;;4.63;1.88;;;16.20;99.90;;;;;;5227690;27;20022;-83
2024/04/11 07:00:26;;;;;;;3.35;2.10;;;16.20;99.90;;;;;;5229360;27;20033;-82
2024/04/11 07:02:54;;;;;;;3.25;1.92;;;16.20;99.90;;;;;;5233040;27;20011;-82
2024/04/11 07:05:21;;;;;;;3.65;1.58;;;16.20;99.90;;;;;;5226924;27;20038;-82
2024/04/11 07:07:54;;;;;;;4.43;1.90;;;16.20;99.90;;;;;;5232139;27;20022;-82
2024/04/11 07:10:26;;;;;;;5.82;1.83;;;16.20;99.90;;;;;;5232092;27;20018;-83
2024/04/11 07:12:53;;;;;;;2.85;1.70;;;16.20;99.90;;;;;;5230371;27;20007;-82
2024/04/11 07:15:28;;;;;;;6.35;2.00;;;16.20;99.90;;;;;;5234356;27;20020;-82
2024/04/11 07:17:57;;;;;;;5.50;1.80;;;16.20;99.90;;;;;;5231117;27;21074;-82
2024/04/11 07:20:25;;;;;;;4.95;1.85;;;16.20;99.90;;;;;;5228478;27;20011;-83
2024/04/11 07:22:54;;;;;;;5.25;2.22;;;16.20;99.90;;;;;;5232080;27;20578;-82
2024/04/11 07:25:22;;;;;;;3.35;1.67;;;16.20;99.90;;;;;;5238959;27;20123;-83
2024/04/11 07:27:49;;;;;;;5.85;2.00;;;16.20;99.90;;;;;;5263232;27;20019;-83
2024/04/11 07:30:17;;;;;;;5.25;2.22;;;16.20;99.90;;;;;;5239237;27;20007;-82
2024/04/11 07:32:44;;;;;;;4.82;2.00;;;16.20;99.90;;;;;;5232093;27;20337;-83
2024/04/11 07:35:14;;;;;;;4.40;1.80;;;16.20;99.90;;;;;;5227000;27;20394;-83
2024/04/11 07:37:41;;;;;;;;;;;16.20;99.90;;;;;;5233337;27;20461;-82
2024/04/11 07:40:27;;;;;;;4.75;1.92;;;16.20;99.90;;;;;;5230820;27;19935;-82
2024/04/11 07:42:57;;;;;;;3.85;2.13;;;16.20;99.90;;;;;;5234963;27;20007;-82
2024/04/11 07:45:30;;;;;;;5.50;2.00;;;16.20;99.90;;;;;;5234161;27;20099;-82
2024/04/11 07:47:58;;;;;;;3.95;1.80;;;16.20;99.90;;;;;;5232329;27;20030;-82
2024/04/11 07:50:26;;;;;;;3.78;1.80;;;16.20;99.90;;;;;;5236639;27;20011;-83
2024/04/11 07:52:52;;;;;;;4.82;1.92;;;16.20;99.90;;;;;;5254850;27;20007;-82
2024/04/11 07:55:20;;;;;;;4.60;1.70;;;16.20;99.90;;;;;;5265404;27;20103;-82
2024/04/11 07:57:46;;;;;;;6.32;2.10;;;16.20;99.90;;;;;;5230469;27;20015;-82
2024/04/11 08:00:20;;;;;;;5.25;1.90;;;16.20;99.90;;;;;;5228360;27;20256;-82
2024/04/11 08:02:48;;;;;;;6.47;2.10;;;16.20;99.90;;;;;;5234088;27;20015;-82
2024/04/11 08:05:18;;;;;;;7.10;1.80;;;16.20;99.90;;;;;;5226091;27;20039;-82
2024/04/11 08:07:44;;;;;;;5.18;2.10;;;16.20;99.90;;;;;;5238431;27;20011;-82
2024/04/11 08:10:10;;;;;;;3.30;1.55;;;16.10;99.90;;;;;;5232193;27;20030;-83
2024/04/11 08:12:35;;;;;;;3.55;1.80;;;16.10;99.90;;;;;;5234693;27;20011;-82
2024/04/11 08:15:02;;;;;;;4.90;1.80;;;16.10;99.90;;;;;;5227158;27;20392;-82
2024/04/11 08:17:29;;;;;;;5.95;2.03;;;16.20;99.90;;;;;;5239886;27;20131;-83
2024/04/11 08:19:55;;;;;;;4.65;1.70;;;16.10;99.90;;;;;;5236494;27;20026;-82
2024/04/11 08:22:22;;;;;;;4.78;2.10;;;16.10;99.90;;;;;;5232762;27;20013;-83
2024/04/11 08:24:49;;;;;;;4.78;1.70;;;16.10;99.90;;;;;;5238750;27;20023;-83
2024/04/11 08:27:15;;;;;;;7.13;2.15;;;16.10;99.90;;;;;;5238345;27;20018;-84
2024/04/11 08:29:41;;;;;;;8.68;2.03;;;16.10;99.90;;;;;;5240540;27;20472;-84
2024/04/11 08:32:06;;;;;;;5.90;1.90;;;16.10;99.90;;;;;;5234568;27;20135;-82
2024/04/11 08:34:32;;;;;;;6.70;2.00;;;16.10;99.90;;;;;;5228767;27;20011;-85
2024/04/11 08:36:58;;;;;;;10.10;1.98;;;16.00;99.90;;;;;;5229992;27;20018;-85
2024/04/11 08:39:24;;;;;;;6.28;1.80;;;16.00;99.90;;;;;;5231957;27;20565;-84
2024/04/11 08:41:51;;;;;;;7.70;2.03;;;16.00;99.90;;;;;;5237337;27;20018;-85
2024/04/11 08:44:18;;;;;;;7.40;1.90;;;16.00;99.90;;;;;;5229659;27;20072;-85
2024/04/11 08:46:44;;;;;;;7.75;2.10;;;16.00;99.90;;;;;;5241138;27;20007;-85
2024/04/11 08:49:10;;;;;;;7.63;2.33;;;16.00;99.90;;;;;;5263123;27;20425;-84
2024/04/11 08:51:39;;;;;;;6.43;2.10;;;16.00;99.90;;;;;;5235654;27;20412;-83
2024/04/11 08:54:07;;;;;;;6.28;1.80;;;16.00;99.90;;;;;;5232120;27;20024;-85
2024/04/11 08:56:32;;;;;;;9.02;2.00;;;15.90;99.90;;;;;;5235717;27;20022;-85
2024/04/11 08:58:58;;;;;;;9.68;2.17;;;15.90;99.90;;;;;;5236526;27;20015;-85
2024/04/11 09:01:24;;;;;;;7.00;1.90;;;16.00;99.90;;;;;;5232260;27;20004;-85
2024/04/11 09:03:50;;;;;;;6.50;1.83;;;15.90;99.90;;;;;;5237498;27;20023;-84
2024/04/11 09:06:23;;;;;;;8.23;1.80;;;15.90;99.90;;;;;;5234872;27;20014;-85
2024/04/11 09:08:53;;;;;;;6.30;1.80;;;15.90;99.90;;;;;;5234645;27;20085;-85
2024/04/11 09:11:19;;;;;;;5.85;1.80;;;15.90;99.90;;;;;;5232603;27;20082;-86
2024/04/11 09:13:45;;;;;;;6.00;1.88;;;16.00;99.90;;;;;;5236876;27;20011;-85
2024/04/11 09:16:12;;;;;;;9.82;2.00;;;16.00;99.90;;;;;;5241922;27;20015;-84
2024/04/11 09:18:37;;;;;;;7.90;1.98;;;16.00;99.90;;;;;;5239563;27;20021;-84
2024/04/11 09:21:05;;;;;;;6.75;1.52;;;16.00;99.90;;;;;;5239021;27;20007;-84
2024/04/11 09:23:51;;;;;;;7.95;1.88;;;16.00;99.90;;;;;;5238286;27;20057;-84
2024/04/11 09:26:17;;;;;;;14.95;2.10;;;15.90;99.90;;;;;;5266586;27;20007;-83
2024/04/11 09:28:43;;;;;;;8.27;1.80;;;15.90;99.90;;;;;;5238228;27;20011;-84
2024/04/11 09:31:10;;;;;;;5.47;1.60;;;15.90;99.90;;;;;;5239144;27;20011;-84
2024/04/11 09:33:39;;;;;;;7.05;1.52;;;15.90;99.90;;;;;;5239960;27;20093;-83
2024/04/11 09:36:09;;;;;;;6.65;1.35;;;15.90;99.90;;;;;;5240451;27;20022;-84
2024/04/11 09:38:36;;;;;;;4.47;1.30;;;15.90;99.90;;;;;;5237391;27;20026;-84
2024/04/11 09:41:11;;;;;;;6.32;1.25;;;15.80;99.90;;;;;;5241719;27;20430;-82
2024/04/11 09:43:41;;;;;;;3.97;1.20;;;15.90;99.90;;;;;;5243113;27;20007;-83
2024/04/11 09:46:17;;;;;;;7.53;1.10;;;15.90;99.90;;;;;;5236327;27;20022;-85
2024/04/11 09:48:47;;;;;;;7.10;1.50;;;15.90;99.90;;;;;;5237074;27;20011;-85
2024/04/11 09:51:15;;;;;;;6.28;1.33;;;15.90;99.90;;;;;;5236586;27;20536;-84
2024/04/11 09:53:41;;;;;;;4.88;1.25;;;15.90;99.90;;;;;;5242813;27;20699;-84
2024/04/11 09:56:11;;;;;;;5.88;1.48;;;15.90;99.90;;;;;;5242824;27;20464;-84
2024/04/11 09:58:38;;;;;;;4.80;1.15;;;15.90;99.90;;;;;;5230289;27;20122;-84
2024/04/11 10:01:31;;;;;;;5.60;1.20;;;15.90;99.90;;;;;;5236235;27;20056;-85
2024/04/11 10:04:21;;;;;;;3.95;1.02;;;16.00;99.90;;;;;;5242125;27;20086;-84
2024/04/11 10:06:52;;;;;;;;;;;16.00;99.90;;;;;;5242158;27;20039;-84
2024/04/11 10:09:17;;;;;;;3.97;1.30;;;16.00;99.90;;;;;;5239227;27;19935;-84
2024/04/11 10:12:00;;;;;;;6.60;1.02;;;16.00;99.90;;;;;;5237459;27;20558;-84
2024/04/11 10:14:28;;;;;;;5.13;0.90;;;16.00;99.90;;;;;;5235592;27;20472;-85
2024/04/11 10:17:01;;;;;;;5.78;1.27;;;16.00;99.90;;;;;;5226195;27;20011;-84
2024/04/11 10:19:31;;;;;;;4.75;1.35;;;16.00;99.90;;;;;;5236249;27;20453;-84
2024/04/11 10:22:05;;;;;;;4.32;1.05;;;16.00;99.90;;;;;;5240504;27;20066;-84
2024/04/11 10:24:35;;;;;;;2.80;1.02;;;16.10;99.90;;;;;;5240732;27;20110;-84
2024/04/11 10:27:11;;;;;;;4.72;1.38;;;16.00;99.90;;;;;;5232628;27;20011;-84
2024/04/11 10:29:46;;;;;;;5.28;1.45;;;16.00;99.90;;;;;;5240768;27;20066;-84
2024/04/11 10:32:26;;;;;;;3.80;1.00;;;16.00;99.90;;;;;;5225283;27;20584;-84
2024/04/11 10:34:58;;;;;;;5.15;1.42;;;16.00;99.90;;;;;;5234457;27;20038;-84
2024/04/11 10:37:25;;;;;;;7.63;1.92;;;16.00;99.90;;;;;;5239116;27;20551;-84
2024/04/11 10:39:58;;;;;;;7.72;2.00;;;16.00;99.90;;;;;;5241031;27;20026;-84
2024/04/11 10:42:36;;;;;;;5.30;1.55;;;16.10;99.90;;;;;;5240264;27;20019;-84
2024/04/11 10:45:07;;;;;;;4.68;1.50;;;16.10;99.90;;;;;;5238638;27;20007;-84
2024/04/11 10:47:35;;;;;;;2.63;1.20;;;16.10;99.90;;;;;;5238587;27;20007;-84
2024/04/11 10:50:09;;;;;;;10.70;2.30;;;16.00;99.90;;;;;;5265519;27;20026;-85
2024/04/11 10:52:37;;;;;;;12.32;2.10;;;16.10;99.90;;;;;;5237938;27;20043;-84
2024/04/11 10:55:12;;;;;;;8.77;1.85;;;16.10;99.90;;;;;;5238875;27;20010;-84
2024/04/11 10:57:44;;;;;;;5.43;2.00;;;16.10;99.90;;;;;;5259148;27;20030;-83
2024/04/11 11:00:11;;;;;;;20.20;2.60;;;16.20;99.90;;;;;;5239003;27;20146;-84
2024/04/11 11:02:38;;;;;;;6.25;1.65;;;16.20;99.90;;;;;;5241410;27;20011;-83
2024/04/11 11:05:07;;;;;;;10.68;2.22;;;16.20;99.90;;;;;;5238582;27;20080;-84
2024/04/11 11:07:35;;;;;;;9.05;2.17;;;16.20;99.90;;;;;;5236861;27;20089;-84
2024/04/11 11:10:11;;;;;;;6.13;1.95;;;16.20;99.90;;;;;;5237146;27;20003;-84
2024/04/11 11:12:37;;;;;;;14.68;2.83;;;16.20;99.90;;;;;;5242308;27;20089;-84
2024/04/11 11:15:03;;;;;;;29.38;3.53;;;16.20;99.90;;;;;;5241242;27;20021;-84
2024/04/11 11:17:31;;;;;;;27.77;3.90;;;16.20;99.90;;;;;;5238447;27;20031;-83
2024/04/11 11:19:58;;;;;;;22.25;3.75;;;16.20;99.90;;;;;;5234277;27;20010;-85
2024/04/11 11:22:33;;;;;;;14.05;2.78;;;16.20;99.90;;;;;;5240071;27;20011;-84
2024/04/11 11:25:00;;;;;;;11.50;2.50;;;16.20;99.90;;;;;;5238627;27;20011;-85
2024/04/11 11:27:31;;;;;;;14.73;2.63;;;16.20;99.90;;;;;;5241369;27;20030;-83
2024/04/11 11:29:57;;;;;;;10.75;2.17;;;16.20;99.90;;;;;;5241344;27;20007;-85
2024/04/11 11:32:25;;;;;;;10.27;2.60;;;16.20;99.90;;;;;;5229394;27;20089;-84
2024/04/11 11:34:52;;;;;;;8.50;2.22;;;16.20;99.90;;;;;;5241800;27;20003;-84
2024/04/11 11:37:21;;;;;;;9.98;2.42;;;16.20;99.90;;;;;;5231342;27;20085;-84
2024/04/11 11:39:55;;;;;;;10.75;1.98;;;16.20;99.90;;;;;;5240676;27;20022;-75
2024/04/11 11:42:26;;;;;;;10.90;2.25;;;16.30;99.90;;;;;;5242451;27;20010;-84
2024/04/11 11:45:05;;;;;;;4.97;1.70;;;16.30;99.90;;;;;;5229312;27;20090;-85
2024/04/11 11:47:36;;;;;;;7.47;1.63;;;16.30;99.90;;;;;;5237247;27;20095;-86
2024/04/11 11:50:09;;;;;;;11.25;1.90;;;16.30;99.90;;;;;;5241166;27;20034;-84
2024/04/11 11:52:49;;;;;;;7.78;1.60;;;16.30;99.90;;;;;;5240538;27;20026;-84
2024/04/11 11:55:17;;;;;;;7.32;1.83;;;16.30;99.90;;;;;;5228702;27;20007;-84
2024/04/11 11:57:54;;;;;;;9.95;2.00;;;16.30;99.90;;;;;;5234983;27;20006;-83
2024/04/11 12:00:25;;;;;;;8.02;1.77;;;16.30;99.90;;;;;;5235788;27;20352;-84
2024/04/11 12:02:59;;;;;;;5.10;1.48;;;16.30;99.90;;;;;;5230854;27;20026;-84
2024/04/11 12:05:27;;;;;;;6.18;1.50;;;16.30;99.90;;;;;;5235081;27;20472;-84
2024/04/11 12:07:54;;;;;;;5.45;1.30;;;16.30;99.90;;;;;;5237453;27;20008;-84
2024/04/11 12:11:13;;;;;;;5.38;1.58;;;16.30;99.90;;;;;;5243873;27;20011;-84
2024/04/11 12:13:19;;;;;;;6.57;1.75;;;16.30;99.90;;;;;;5240365;27;20015;-85
2024/04/11 12:15:48;;;;;;;6.18;1.75;;;16.30;99.90;;;;;;5238966;27;20010;-84
2024/04/11 12:18:22;;;;;;;10.60;1.92;;;16.30;99.90;;;;;;5241165;27;20010;-84
2024/04/11 12:20:57;;;;;;;6.40;1.40;;;16.30;99.90;;;;;;5238325;27;20011;-84
2024/04/11 12:23:30;;;;;;;7.25;1.58;;;16.30;99.90;;;;;;5240517;27;20415;-85
2024/04/11 12:25:57;;;;;;;5.03;1.40;;;16.30;99.90;;;;;;5236088;27;20007;-84
2024/04/11 12:28:25;;;;;;;3.72;1.23;;;16.30;99.90;;;;;;5236611;27;20007;-84
2024/04/11 12:30:58;;;;;;;5.45;1.88;;;16.30;99.90;;;;;;5237862;27;20018;-84
2024/04/11 12:33:27;;;;;;;9.13;1.25;;;16.30;99.90;;;;;;5240186;27;20007;-85
2024/04/11 12:35:56;;;;;;;10.30;1.80;;;16.30;99.90;;;;;;5231300;27;20026;-84
2024/04/11 12:38:24;;;;;;;4.90;1.70;;;16.30;99.90;;;;;;5234725;27;20464;-84
2024/04/11 12:40:50;;;;;;;6.13;1.67;;;16.30;99.90;;;;;;5237901;27;20015;-84
2024/04/11 12:43:19;;;;;;;6.18;1.38;;;16.30;99.90;;;;;;5231245;27;20011;-84
2024/04/11 12:45:52;;;;;;;5.93;1.50;;;16.30;99.90;;;;;;5233018;27;20061;-84
2024/04/11 12:48:25;;;;;;;8.32;1.73;;;16.30;99.90;;;;;;5239346;27;20010;-84
2024/04/11 12:50:54;;;;;;;6.95;1.75;;;16.30;99.90;;;;;;5239695;27;20073;-84
2024/04/11 12:53:25;;;;;;;6.30;1.60;;;16.30;99.90;;;;;;5240380;27;20011;-84
2024/04/11 12:55:57;;;;;;;10.13;2.15;;;16.30;99.90;;;;;;5239314;27;20102;-84
2024/04/11 12:58:24;;;;;;;6.20;1.52;;;16.30;99.90;;;;;;5240422;27;20007;-84
2024/04/11 13:01:03;;;;;;;6.70;1.85;;;16.30;99.90;;;;;;5240133;27;20021;-84
2024/04/11 13:06:22;;;;;;;8.10;2.35;;;16.30;99.90;;;;;;5232590;27;20028;-84
2024/04/11 13:08:48;;;;;;;9.43;2.10;;;16.30;99.90;;;;;;5232294;27;20029;-85
2024/04/11 13:11:36;;;;;;;13.80;2.40;;;16.30;99.90;;;;;;5234613;27;20333;-84
2024/04/11 13:14:09;;;;;;;10.10;2.20;;;16.30;99.90;;;;;;5241884;27;20087;-84
2024/04/11 13:16:40;;;;;;;10.02;1.88;;;16.40;99.90;;;;;;5230361;27;20018;-85
2024/04/11 13:19:06;;;;;;;11.40;1.80;;;16.40;99.90;;;;;;5233895;27;20043;-84
2024/04/11 13:21:38;;;;;;;8.55;1.60;;;16.40;99.90;;;;;;5230211;27;20015;-85
2024/04/11 13:24:10;;;;;;;8.13;1.77;;;16.40;99.90;;;;;;5236932;27;20050;-84
2024/04/11 13:26:50;;;;;;;4.00;1.30;;;16.40;99.90;;;;;;5238259;27;20078;-84
2024/04/11 13:29:18;;;;;;;4.15;1.60;;;16.40;99.90;;;;;;5238239;27;20085;-84
2024/04/11 13:31:51;;;;;;;7.18;1.70;;;16.40;99.90;;;;;;5233978;27;20007;-85
2024/04/11 13:34:34;;;;;;;10.80;2.35;;;16.40;99.90;;;;;;5226863;27;20011;-84
2024/04/11 13:37:03;;;;;;;5.05;1.58;;;16.40;99.90;;;;;;5234669;27;20051;-84
2024/04/11 13:39:30;;;;;;;5.93;1.58;;;16.40;99.90;;;;;;5238887;27;20012;-84
2024/04/11 13:41:56;;;;;;;4.35;1.20;;;16.40;99.90;;;;;;5239562;27;20027;-85
2024/04/11 13:44:22;;;;;;;6.90;1.60;;;16.40;99.90;;;;;;5234073;27;20015;-85
2024/04/11 13:46:50;;;;;;;8.68;1.83;;;16.40;99.90;;;;;;5241252;27;20011;-85
2024/04/11 13:49:30;;;;;;;5.70;1.40;;;16.40;99.90;;;;;;5266506;27;20022;-84
2024/04/11 13:52:18;;;;;;;2.85;1.30;;;16.40;99.90;;;;;;5239668;27;20026;-84
2024/04/11 13:54:44;;;;;;;6.32;1.40;;;16.40;99.90;;;;;;5240041;27;20015;-84
2024/04/11 13:57:20;;;;;;;4.00;1.13;;;16.40;99.90;;;;;;5241259;27;20069;-84
2024/04/11 13:59:54;;;;;;;7.72;1.90;;;16.40;99.90;;;;;;5234504;27;20022;-85
2024/04/11 14:05:11;;;;;;;4.38;1.27;;;16.40;99.90;;;;;;5240640;27;20018;-83
2024/04/11 14:07:40;;;;;;;4.90;1.45;;;16.40;99.90;;;;;;5238759;27;20015;-84
2024/04/11 14:10:06;;;;;;;3.40;1.40;;;16.40;99.90;;;;;;5240601;27;20011;-84
2024/04/11 14:12:35;;;;;;;5.95;1.40;;;16.40;99.90;;;;;;5238688;27;20010;-84
2024/04/11 14:15:04;;;;;;;7.28;1.73;;;16.40;99.90;;;;;;5236822;27;20015;-84
2024/04/11 14:17:31;;;;;;;4.55;1.33;;;16.40;99.90;;;;;;5240395;27;20030;-84
2024/04/11 14:22:50;;;;;;;3.92;1.02;;;16.40;99.90;;;;;;5237380;27;20437;-84
2024/04/11 14:27:48;;;;;;;2.63;1.15;;;16.40;99.90;;;;;;5235488;27;20011;-84
2024/04/11 14:30:25;;;;;;;3.40;1.08;;;16.40;99.90;;;;;;5238643;27;20011;-84
2024/04/11 14:38:08;;;;;;;3.85;1.08;;;16.40;99.90;;;;;;5231233;27;20083;-84
2024/04/11 14:40:38;;;;;;;4.30;1.20;;;16.40;99.90;;;;;;5238317;27;20021;-84
2024/04/11 14:43:11;;;;;;;;;;;16.40;99.90;;;;;;5235305;27;20035;-85
2024/04/11 14:45:41;;;;;;;7.07;1.38;;;16.40;99.90;;;;;;5234827;27;19938;-85
2024/04/11 14:48:18;;;;;;;6.20;1.30;;;16.40;99.90;;;;;;5232893;27;20010;-84
2024/04/11 14:50:55;;;;;;;3.53;1.00;;;16.40;99.90;;;;;;5234350;27;20007;-84
2024/04/11 14:53:24;;;;;;;4.57;1.10;;;16.40;99.90;;;;;;5228791;27;20000;-84
2024/04/11 14:55:56;;;;;;;5.38;1.15;;;16.40;99.90;;;;;;5238090;27;20004;-84
2024/04/11 14:58:30;;;;;;;5.38;1.40;;;16.40;99.90;;;;;;5231196;27;20003;-84
2024/04/11 15:01:14;;;;;;;3.55;1.00;;;16.40;99.90;;;;;;5238178;27;20007;-84
2024/04/11 15:03:47;;;;;;;6.88;1.30;;;16.40;99.90;;;;;;5238587;27;20003;-84
2024/04/11 15:06:13;;;;;;;2.85;1.20;;;16.40;99.90;;;;;;5237148;27;20018;-84
2024/04/11 15:08:41;;;;;;;4.63;1.35;;;16.40;99.90;;;;;;5239965;27;20122;-84
2024/04/11 15:11:11;;;;;;;6.68;1.38;;;16.40;99.90;;;;;;5235607;27;20008;-84
2024/04/11 15:13:38;;;;;;;4.03;1.20;;;16.40;99.90;;;;;;5236394;27;20011;-85
2024/04/11 15:16:38;;;;;;;6.20;1.42;;;16.40;99.90;;;;;;5237857;27;20007;-84
2024/04/11 15:18:56;;;;;;;6.55;1.33;;;16.40;99.90;;;;;;5237228;27;20015;-84
2024/04/11 15:21:44;;;;;;;4.75;1.20;;;16.40;99.90;;;;;;5237600;27;20077;-85
2024/04/11 15:24:13;;;;;;;4.20;1.20;;;16.40;99.90;;;;;;5236257;27;20014;-84
2024/04/11 15:26:47;;;;;;;5.35;1.08;;;16.40;99.90;;;;;;5240483;27;20604;-84
2024/04/11 15:29:57;;;;;;;5.50;1.30;;;16.40;99.90;;;;;;5236201;27;20007;-84
2024/04/11 15:32:06;;;;;;;6.43;1.30;;;16.40;99.90;;;;;;5238318;27;20003;-84
2024/04/11 15:34:41;;;;;;;4.55;1.40;;;16.40;99.90;;;;;;5237764;27;20014;-85
2024/04/11 15:37:28;;;;;;;5.18;1.10;;;16.40;99.90;;;;;;5233801;27;21155;-84
2024/04/11 15:40:00;;;;;;;4.38;1.20;;;16.40;99.90;;;;;;5235533;27;20003;-83
2024/04/11 15:42:32;;;;;;;4.93;1.20;;;16.40;99.90;;;;;;5237001;27;20022;-83
2024/04/11 15:45:03;;;;;;;5.50;1.30;;;16.40;99.90;;;;;;5236249;27;20369;-84
2024/04/11 15:47:34;;;;;;;4.70;1.30;;;16.40;99.90;;;;;;5238838;27;20004;-83
2024/04/11 15:50:15;;;;;;;6.00;1.15;;;16.40;99.90;;;;;;5266441;27;20395;-83
2024/04/11 15:52:42;;;;;;;5.28;1.10;;;16.40;99.90;;;;;;5238788;27;20018;-84
2024/04/11 15:55:15;;;;;;;2.03;0.90;;;16.40;99.90;;;;;;5238662;27;20008;-84
2024/04/11 15:57:42;;;;;;;3.78;1.02;;;16.40;99.90;;;;;;5240243;27;20355;-83
2024/04/11 16:00:26;;;;;;;3.63;1.10;;;16.40;99.90;;;;;;5240904;27;20018;-84
2024/04/11 16:02:53;;;;;;;7.28;1.40;;;16.40;99.90;;;;;;5231250;27;20448;-83
2024/04/11 16:05:27;;;;;;;2.42;1.05;;;16.40;99.90;;;;;;5234217;27;20023;-84
2024/04/11 16:07:59;;;;;;;3.42;1.10;;;16.40;99.90;;;;;;5239902;27;20018;-84
2024/04/11 16:10:28;;;;;;;5.70;1.55;;;16.40;99.90;;;;;;5241428;27;20112;-84
2024/04/11 16:12:58;;;;;;;3.58;1.23;;;16.40;99.90;;;;;;5238610;27;20333;-83
2024/04/11 16:15:26;;;;;;;3.72;1.30;;;16.40;99.90;;;;;;5240831;27;20034;-83
2024/04/11 16:17:55;;;;;;;5.45;1.30;;;16.40;99.90;;;;;;5242754;27;20017;-84
2024/04/11 16:20:22;;;;;;;5.40;1.10;;;16.40;99.90;;;;;;5238304;27;20022;-83
2024/04/11 16:22:51;;;;;;;5.45;1.30;;;16.40;99.90;;;;;;5237673;27;20003;-84
2024/04/11 16:25:21;;;;;;;5.68;1.17;;;16.40;99.90;;;;;;5238855;27;20018;-81
2024/04/11 16:27:48;;;;;;;5.40;1.30;;;16.40;99.90;;;;;;5236728;27;20022;-82
2024/04/11 16:30:28;;;;;;;13.27;1.30;;;16.40;99.90;;;;;;5228872;27;20022;-77
2024/04/11 16:33:05;;;;;;;19.50;1.85;;;16.70;99.90;;;;;;5239502;27;19999;-82
2024/04/11 16:35:38;;;;;;;13.48;1.50;;;17.00;99.90;;;;;;5239063;27;20425;-82
2024/04/11 16:38:07;;;;;;;15.07;1.60;;;17.20;99.90;;;;;;5237433;27;20004;-82
2024/04/11 16:40:39;;;;;;;8.15;1.45;;;17.30;99.90;;;;;;5240229;27;20106;-83
2024/04/11 16:43:10;;;;;;;7.30;1.30;;;17.50;99.90;;;;;;5233396;27;20011;-83
2024/04/11 16:45:41;;;;;;;12.35;1.60;;;17.70;99.90;;;;;;5239113;27;20015;-82